createdAt,value
2023-02-06T00:04:27.971Z,18.05
2023-02-06T00:10:29.792Z,16.50
2023-02-06T00:16:33.441Z,16.65
2023-02-06T00:22:35.477Z,16.35
2023-02-06T00:28:37.726Z,14.93
2023-02-06T00:34:39.467Z,16.60
2023-02-06T00:40:41.323Z,16.58
2023-02-06T00:46:43.168Z,14.70
2023-02-06T00:52:45.497Z,13.68
2023-02-06T00:58:47.525Z,11.98
2023-02-06T01:04:49.319Z,13.05
2023-02-06T01:10:51.252Z,11.75
2023-02-06T01:16:53.161Z,11.43
2023-02-06T01:22:54.921Z,11.07
2023-02-06T01:28:57.156Z,10.57
2023-02-06T01:34:58.927Z,13.77
2023-02-06T01:41:01.680Z,11.35
2023-02-06T01:47:03.466Z,13.02
2023-02-06T01:53:07.259Z,11.82
2023-02-06T01:59:09.475Z,12.57
2023-02-06T02:05:12.736Z,11.90
2023-02-06T02:11:19.127Z,10.85
2023-02-06T02:18:03.285Z,12.25
2023-02-06T02:24:08.990Z,11.48
2023-02-06T02:30:10.764Z,11.38
2023-02-06T02:36:19.519Z,12.18
2023-02-06T02:42:27.147Z,12.70
2023-02-06T02:48:34.394Z,11.95
2023-02-06T02:54:36.253Z,10.63
2023-02-06T03:01:05.035Z,10.75
2023-02-06T03:07:28.321Z,10.45
2023-02-06T03:13:38.329Z,9.45
2023-02-06T03:19:48.526Z,9.07
2023-02-06T03:25:55.639Z,10.82
2023-02-06T03:32:07.653Z,11.40
2023-02-06T03:38:10.003Z,10.80
2023-02-06T03:44:18.730Z,9.82
2023-02-06T03:50:22.664Z,10.13
2023-02-06T03:56:35.587Z,9.87
2023-02-06T04:02:39.261Z,9.15
2023-02-06T04:08:41.079Z,9.37
2023-02-06T04:14:43.335Z,9.90
2023-02-06T04:20:45.118Z,9.73
2023-02-06T04:26:46.931Z,9.23
2023-02-06T04:32:48.685Z,10.20
2023-02-06T04:38:51.970Z,9.73
2023-02-06T04:44:53.712Z,9.75
2023-02-06T04:50:55.631Z,11.00
2023-02-06T04:56:57.444Z,11.23
2023-02-06T05:02:59.174Z,10.88
2023-02-06T05:09:02.446Z,11.40
2023-02-06T05:15:05.125Z,10.93
2023-02-06T05:21:07.138Z,10.88
2023-02-06T05:27:08.954Z,10.60
2023-02-06T05:33:10.981Z,11.25
2023-02-06T05:39:12.957Z,11.20
2023-02-06T05:45:14.757Z,12.63
2023-02-06T05:51:17.020Z,11.73
2023-02-06T05:57:19.062Z,13.38
2023-02-06T06:03:21.034Z,13.05
2023-02-06T06:09:22.979Z,11.35
2023-02-06T06:15:24.816Z,12.27
2023-02-06T06:21:26.627Z,13.75
2023-02-06T06:27:28.489Z,12.10
2023-02-06T06:33:30.404Z,12.65
2023-02-06T06:39:32.465Z,15.60
2023-02-06T06:45:34.956Z,14.50
2023-02-06T06:51:37.142Z,12.73
2023-02-06T06:57:39.012Z,13.05
2023-02-06T07:03:44.223Z,14.80
2023-02-06T07:09:46.088Z,12.40
2023-02-06T07:15:47.925Z,14.00
2023-02-06T07:21:49.824Z,12.25
2023-02-06T07:27:51.702Z,11.48
2023-02-06T07:33:53.699Z,13.77
2023-02-06T07:39:55.627Z,12.70
2023-02-06T07:46:02.511Z,14.00
2023-02-06T07:52:04.536Z,13.23
2023-02-06T07:58:06.589Z,12.30
2023-02-06T08:04:08.538Z,13.75
2023-02-06T08:10:10.553Z,11.90
2023-02-06T08:16:14.817Z,12.43
2023-02-06T08:22:16.616Z,15.30
2023-02-06T08:28:18.658Z,15.77
2023-02-06T08:34:20.761Z,11.80
2023-02-06T08:40:22.676Z,12.95
2023-02-06T08:46:28.365Z,8.52
2023-02-06T08:52:30.231Z,12.65
2023-02-06T08:58:33.259Z,12.55
2023-02-06T09:04:37.537Z,12.93
2023-02-06T09:10:39.338Z,12.35
2023-02-06T09:16:41.367Z,12.15
2023-02-06T09:22:44.970Z,11.00
2023-02-06T09:28:47.563Z,14.05
2023-02-06T09:34:49.701Z,11.30
2023-02-06T09:40:54.628Z,10.30
2023-02-06T09:47:18.882Z,14.07
2023-02-06T09:53:26.365Z,12.13
2023-02-06T09:59:37.791Z,12.70
2023-02-06T10:05:58.552Z,13.23
2023-02-06T10:12:07.342Z,13.70
2023-02-06T10:18:42.148Z,12.43
2023-02-06T10:25:04.452Z,13.90
2023-02-06T10:31:18.629Z,14.50
2023-02-06T10:37:48.536Z,13.57
2023-02-06T10:43:56.555Z,14.30
2023-02-06T10:50:26.844Z,15.38
2023-02-06T10:56:36.152Z,14.77
2023-02-06T11:03:08.111Z,15.55
2023-02-06T11:09:11.128Z,15.00
2023-02-06T11:15:23.011Z,15.75
2023-02-06T11:21:46.255Z,14.27
2023-02-06T11:27:49.133Z,16.60
2023-02-06T11:33:54.318Z,16.55
2023-02-06T11:40:24.829Z,15.90
2023-02-06T11:46:32.996Z,17.17
2023-02-06T11:52:35.032Z,13.43
2023-02-06T11:58:37.013Z,12.05
2023-02-06T12:04:40.714Z,17.52
2023-02-06T12:11:08.435Z,16.77
2023-02-06T12:17:32.581Z,15.18
2023-02-06T12:24:05.718Z,11.40
2023-02-06T12:30:30.533Z,15.20
2023-02-06T12:36:37.683Z,15.48
2023-02-06T12:42:43.554Z,12.73
2023-02-06T12:49:03.879Z,13.13
2023-02-06T12:55:16.580Z,15.05
2023-02-06T13:01:34.376Z,13.68
2023-02-06T13:07:49.025Z,12.05
2023-02-06T13:14:00.886Z,13.48
2023-02-06T13:20:14.227Z,12.60
2023-02-06T13:26:16.659Z,12.93
2023-02-06T13:32:18.740Z,14.20
2023-02-06T13:38:23.375Z,12.43
2023-02-06T13:44:30.716Z,12.40
2023-02-06T13:50:48.500Z,9.95
2023-02-06T13:57:15.855Z,10.30
2023-02-06T14:03:29.540Z,9.00
2023-02-06T14:09:59.099Z,7.18
2023-02-06T14:16:29.703Z,7.03
2023-02-06T14:22:34.432Z,6.93
2023-02-06T14:35:11.795Z,6.00
2023-02-06T14:41:16.043Z,5.38
2023-02-06T14:47:23.690Z,6.28
2023-02-06T14:53:32.569Z,6.25
2023-02-06T14:59:34.453Z,5.32
2023-02-06T15:05:36.707Z,7.47
2023-02-06T15:11:38.966Z,7.03
2023-02-06T15:17:41.290Z,3.83
2023-02-06T15:23:48.686Z,5.63
2023-02-06T15:29:51.059Z,3.63
2023-02-06T15:35:55.269Z,6.13
2023-02-06T15:41:57.194Z,7.80
2023-02-06T15:48:01.832Z,6.93
2023-02-06T15:54:24.177Z,6.20
2023-02-06T16:00:31.180Z,7.15
2023-02-06T16:06:33.309Z,7.32
2023-02-06T16:12:37.656Z,9.10
2023-02-06T16:18:40.719Z,9.07
2023-02-06T16:24:43.044Z,8.48
2023-02-06T16:30:58.519Z,8.60
2023-02-06T16:37:01.110Z,7.53
2023-02-06T16:43:03.032Z,6.88
2023-02-06T16:49:13.175Z,7.50
2023-02-06T16:55:22.903Z,7.55
2023-02-06T17:01:28.688Z,6.80
2023-02-06T17:07:32.451Z,7.80
2023-02-06T17:13:34.383Z,7.57
2023-02-06T17:19:36.650Z,7.03
2023-02-06T17:25:40.568Z,7.53
2023-02-06T17:31:42.553Z,6.30
2023-02-06T17:37:44.559Z,7.22
2023-02-06T17:43:46.426Z,8.15
2023-02-06T17:49:48.584Z,6.72
2023-02-06T17:55:50.392Z,7.07
2023-02-06T18:01:53.460Z,6.93
2023-02-06T18:07:55.513Z,7.10
2023-02-06T18:13:57.786Z,8.50
2023-02-06T18:20:00.065Z,10.63
2023-02-06T18:26:03.981Z,10.27
2023-02-06T18:32:05.890Z,10.13
2023-02-06T18:38:09.886Z,9.63
2023-02-06T18:44:12.184Z,9.60
2023-02-06T18:50:14.135Z,9.57
2023-02-06T18:56:16.418Z,9.65
2023-02-06T19:02:18.415Z,8.20
2023-02-06T19:08:20.247Z,9.65
2023-02-06T19:14:25.440Z,8.45
2023-02-06T19:20:27.364Z,6.95
2023-02-06T19:26:29.749Z,8.18
2023-02-06T19:32:33.093Z,8.50
2023-02-06T19:38:35.074Z,9.57
2023-02-06T19:44:37.446Z,9.23
2023-02-06T19:50:40.665Z,8.70
2023-02-06T19:56:44.672Z,8.60
2023-02-06T20:02:46.499Z,8.77
2023-02-06T20:08:48.844Z,8.55
2023-02-06T20:14:50.652Z,9.38
2023-02-06T20:20:52.424Z,8.90
2023-02-06T20:26:57.355Z,9.00
2023-02-06T20:32:59.370Z,8.88
2023-02-06T20:39:02.325Z,9.40
2023-02-06T20:45:04.266Z,9.00
2023-02-06T20:51:06.246Z,10.88
2023-02-06T20:57:08.093Z,10.30
2023-02-06T21:03:09.901Z,10.90
2023-02-06T21:09:12.046Z,10.90
2023-02-06T21:15:13.980Z,11.13
2023-02-06T21:21:15.855Z,11.68
2023-02-06T21:27:17.619Z,12.52
2023-02-06T21:33:19.437Z,11.55
2023-02-06T21:39:25.139Z,11.05
2023-02-06T21:45:26.977Z,10.30
2023-02-06T21:51:28.949Z,10.00
2023-02-06T21:57:31.520Z,9.55
2023-02-06T22:03:34.421Z,8.60
2023-02-06T22:09:36.263Z,8.90
2023-02-06T22:15:38.268Z,9.70
2023-02-06T22:21:40.611Z,9.10
2023-02-06T22:27:43.485Z,9.40
2023-02-06T22:33:46.012Z,9.85
2023-02-06T22:39:47.777Z,9.90
2023-02-06T22:45:49.862Z,9.30
2023-02-06T22:51:51.801Z,10.00
2023-02-06T22:57:53.532Z,10.70
2023-02-06T23:03:55.804Z,10.52
2023-02-06T23:09:57.671Z,11.27
2023-02-06T23:15:59.703Z,10.75
2023-02-06T23:22:01.594Z,10.35
2023-02-06T23:28:03.567Z,11.32
2023-02-06T23:34:05.527Z,10.98
2023-02-06T23:40:08.467Z,10.18
2023-02-06T23:46:12.324Z,10.63
2023-02-06T23:52:14.419Z,10.97
2023-02-06T23:58:16.292Z,10.70
